createdAt,value
2018-02-02T00:01:46.849Z,3.60
2018-02-02T00:04:14.394Z,3.70
2018-02-02T00:06:42.845Z,3.80
2018-02-02T00:09:11.103Z,3.90
2018-02-02T00:11:38.596Z,3.90
2018-02-02T00:14:06.071Z,4.00
2018-02-02T00:16:33.593Z,4.00
2018-02-02T00:19:01.094Z,4.00
2018-02-02T00:21:28.598Z,4.00
2018-02-02T00:23:56.132Z,4.00
2018-02-02T00:26:24.419Z,4.10
2018-02-02T00:28:51.984Z,4.10
2018-02-02T00:31:19.438Z,4.10
2018-02-02T00:33:46.924Z,4.20
2018-02-02T00:36:14.430Z,4.20
2018-02-02T00:38:42.698Z,4.40
2018-02-02T00:41:10.921Z,4.50
2018-02-02T00:43:38.402Z,4.50
2018-02-02T00:46:05.898Z,4.70
2018-02-02T00:48:34.132Z,4.70
2018-02-02T00:51:07.317Z,4.70
2018-02-02T00:53:34.811Z,4.80
2018-02-02T00:56:03.047Z,4.90
2018-02-02T00:58:30.594Z,4.80
2018-02-02T01:00:58.095Z,4.90
2018-02-02T01:03:26.328Z,5.00
2018-02-02T01:05:53.853Z,5.00
2018-02-02T01:08:22.077Z,5.10
2018-02-02T01:10:50.360Z,5.10
2018-02-02T01:13:18.655Z,5.10
2018-02-02T01:15:46.119Z,5.10
2018-02-02T01:18:13.672Z,5.10
2018-02-02T01:20:41.141Z,5.20
2018-02-02T01:23:09.374Z,5.20
2018-02-02T01:25:36.826Z,5.20
2018-02-02T01:28:04.368Z,5.20
2018-02-02T01:30:31.829Z,5.20
2018-02-02T01:32:59.340Z,5.20
2018-02-02T01:35:27.610Z,5.10
2018-02-02T01:37:56.570Z,5.10
2018-02-02T01:40:24.059Z,5.10
2018-02-02T01:42:51.552Z,5.10
2018-02-02T01:45:19.061Z,5.10
2018-02-02T01:47:47.484Z,5.10
2018-02-02T01:50:15.044Z,5.00
2018-02-02T01:52:43.431Z,5.00
2018-02-02T01:55:10.908Z,5.00
2018-02-02T01:57:38.412Z,5.00
2018-02-02T02:00:06.431Z,5.10
2018-02-02T02:02:33.913Z,5.10
2018-02-02T02:05:01.409Z,5.10
2018-02-02T02:07:29.694Z,5.20
2018-02-02T02:09:57.191Z,5.20
2018-02-02T02:12:25.312Z,5.20
2018-02-02T02:14:53.541Z,5.30
2018-02-02T02:17:21.030Z,5.30
2018-02-02T02:19:48.578Z,5.30
2018-02-02T02:22:16.078Z,5.30
2018-02-02T02:24:43.569Z,5.30
2018-02-02T02:27:11.030Z,5.30
2018-02-02T02:29:38.536Z,5.30
2018-02-02T02:32:06.798Z,5.40
2018-02-02T02:34:35.077Z,5.40
2018-02-02T02:37:02.539Z,5.30
2018-02-02T02:39:31.823Z,5.30
2018-02-02T02:41:59.327Z,5.30
2018-02-02T02:44:26.782Z,5.30
2018-02-02T02:46:54.251Z,5.30
2018-02-02T02:49:21.716Z,5.30
2018-02-02T02:51:49.193Z,5.30
2018-02-02T02:54:16.692Z,5.30
2018-02-02T02:56:45.938Z,5.30
2018-02-02T02:59:13.393Z,5.30
2018-02-02T03:01:40.870Z,5.20
2018-02-02T03:04:08.338Z,5.20
2018-02-02T03:06:36.571Z,5.10
2018-02-02T03:09:04.035Z,5.10
2018-02-02T03:11:31.528Z,5.10
2018-02-02T03:13:59.753Z,5.10
2018-02-02T03:16:27.232Z,5.00
2018-02-02T03:18:54.722Z,5.00
2018-02-02T03:21:22.174Z,5.00
2018-02-02T03:23:50.402Z,5.10
2018-02-02T03:26:17.882Z,5.00
2018-02-02T03:28:45.343Z,5.10
2018-02-02T03:31:13.846Z,5.00
2018-02-02T03:33:42.111Z,5.00
2018-02-02T03:36:10.286Z,4.90
2018-02-02T03:38:38.526Z,4.90
2018-02-02T03:41:06.768Z,4.80
2018-02-02T03:43:34.242Z,4.80
2018-02-02T03:46:01.719Z,4.90
2018-02-02T03:48:29.185Z,4.90
2018-02-02T03:50:56.667Z,4.90
2018-02-02T03:53:24.141Z,4.90
2018-02-02T03:55:51.633Z,4.90
2018-02-02T03:58:19.098Z,4.90
2018-02-02T04:00:46.589Z,4.80
2018-02-02T04:03:14.081Z,4.80
2018-02-02T04:05:41.544Z,4.70
2018-02-02T04:08:09.026Z,4.70
2018-02-02T04:10:36.546Z,4.70
2018-02-02T04:13:04.781Z,4.80
2018-02-02T04:15:33.022Z,4.80
2018-02-02T04:18:01.546Z,4.80
2018-02-02T04:20:29.646Z,4.80
2018-02-02T04:22:57.871Z,4.90
2018-02-02T04:25:25.346Z,4.80
2018-02-02T04:27:53.591Z,4.90
2018-02-02T04:30:21.100Z,4.90
2018-02-02T04:32:49.365Z,4.90
2018-02-02T04:35:17.758Z,4.90
2018-02-02T04:37:46.011Z,5.00
2018-02-02T04:40:13.474Z,4.90
2018-02-02T04:42:41.097Z,5.00
2018-02-02T04:45:08.574Z,5.00
2018-02-02T04:47:36.051Z,5.00
2018-02-02T04:50:04.378Z,5.10
2018-02-02T04:52:31.898Z,5.10
2018-02-02T04:55:00.134Z,5.10
2018-02-02T04:57:29.158Z,5.10
2018-02-02T04:59:56.603Z,5.20
2018-02-02T05:02:24.074Z,5.20
2018-02-02T05:04:52.310Z,5.20
2018-02-02T05:07:19.778Z,5.20
2018-02-02T05:09:47.271Z,5.20
2018-02-02T05:12:15.552Z,5.20
2018-02-02T05:14:43.781Z,5.20
2018-02-02T05:17:12.084Z,5.20
2018-02-02T05:19:40.329Z,5.20
2018-02-02T05:22:07.807Z,5.20
2018-02-02T05:24:35.322Z,5.20
2018-02-02T05:27:02.789Z,5.20
2018-02-02T05:29:30.275Z,5.20
2018-02-02T05:31:57.775Z,5.20
2018-02-02T05:34:25.230Z,5.20
2018-02-02T05:36:53.533Z,5.10
2018-02-02T05:39:21.014Z,5.10
2018-02-02T05:41:48.483Z,5.10
2018-02-02T05:44:15.946Z,5.10
2018-02-02T05:46:43.406Z,5.10
2018-02-02T05:49:10.869Z,5.10
2018-02-02T05:51:39.120Z,5.10
2018-02-02T05:54:06.593Z,5.10
2018-02-02T05:56:34.878Z,5.10
2018-02-02T05:59:03.129Z,5.10
2018-02-02T06:01:30.578Z,5.10
2018-02-02T06:03:58.069Z,5.00
2018-02-02T06:06:25.556Z,5.00
2018-02-02T06:08:53.013Z,5.10
2018-02-02T06:11:20.577Z,5.00
2018-02-02T06:13:48.035Z,5.00
2018-02-02T06:16:15.487Z,5.00
2018-02-02T06:18:42.993Z,5.00
2018-02-02T06:21:10.454Z,5.00
2018-02-02T06:23:37.918Z,4.90
2018-02-02T06:26:07.014Z,4.90
2018-02-02T06:28:35.254Z,4.80
2018-02-02T06:31:02.718Z,4.80
2018-02-02T06:33:31.690Z,4.70
2018-02-02T06:35:59.158Z,4.70
2018-02-02T06:38:26.661Z,4.70
2018-02-02T06:40:54.895Z,4.70
2018-02-02T06:43:22.465Z,4.70
2018-02-02T06:45:51.571Z,4.70
2018-02-02T06:48:19.846Z,4.70
2018-02-02T06:50:47.306Z,4.70
2018-02-02T06:53:14.771Z,4.70
2018-02-02T06:55:43.138Z,4.70
2018-02-02T06:58:10.598Z,4.70
2018-02-02T07:00:38.073Z,4.70
2018-02-02T07:03:06.518Z,4.70
2018-02-02T07:05:33.979Z,4.70
2018-02-02T07:08:02.954Z,4.60
2018-02-02T07:10:30.438Z,4.60
2018-02-02T07:12:59.090Z,4.60
2018-02-02T07:15:27.391Z,4.60
2018-02-02T07:17:55.621Z,4.50
2018-02-02T07:20:23.097Z,4.50
2018-02-02T07:22:50.557Z,4.50
2018-02-02T07:25:18.021Z,4.50
2018-02-02T07:27:46.092Z,4.50
2018-02-02T07:30:13.665Z,4.50
2018-02-02T07:32:41.910Z,4.50
2018-02-02T07:35:09.398Z,4.50
2018-02-02T07:37:38.379Z,4.50
2018-02-02T07:40:05.870Z,4.50
2018-02-02T07:42:33.395Z,4.50
2018-02-02T07:45:00.863Z,4.60
2018-02-02T07:47:28.334Z,4.60
2018-02-02T07:49:56.599Z,4.60
2018-02-02T07:52:24.066Z,4.60
2018-02-02T07:54:51.526Z,4.50
2018-02-02T07:57:20.762Z,4.60
2018-02-02T07:59:48.258Z,4.50
2018-02-02T08:02:15.723Z,4.60
2018-02-02T08:04:49.014Z,4.60
2018-02-02T08:07:16.490Z,4.60
2018-02-02T08:09:44.671Z,4.60
2018-02-02T08:12:12.891Z,4.80
2018-02-02T08:14:40.961Z,4.80
2018-02-02T08:17:08.447Z,4.90
2018-02-02T08:19:35.926Z,4.90
2018-02-02T08:22:04.163Z,4.80
2018-02-02T08:24:31.743Z,4.80
2018-02-02T08:26:59.298Z,4.80
2018-02-02T08:29:27.538Z,4.80
2018-02-02T08:31:54.994Z,4.80
2018-02-02T08:34:22.457Z,4.80
2018-02-02T08:36:50.613Z,4.90
2018-02-02T08:39:18.297Z,4.90
2018-02-02T08:41:45.741Z,5.00
2018-02-02T08:44:13.222Z,5.10
2018-02-02T08:46:40.901Z,5.20
2018-02-02T08:49:08.363Z,5.20
2018-02-02T08:51:36.598Z,5.30
2018-02-02T08:54:04.062Z,5.30
2018-02-02T08:56:31.542Z,5.40
2018-02-02T08:58:59.011Z,5.40
2018-02-02T09:01:32.986Z,5.50
2018-02-02T09:04:00.570Z,5.50
2018-02-02T09:06:28.389Z,5.50
2018-02-02T09:08:55.825Z,5.60
2018-02-02T09:11:23.302Z,5.50
2018-02-02T09:13:50.782Z,5.40
2018-02-02T09:16:18.246Z,5.40
2018-02-02T09:18:46.354Z,5.40
2018-02-02T09:21:14.584Z,5.40
2018-02-02T09:23:42.062Z,5.30
2018-02-02T09:26:11.063Z,5.20
2018-02-02T09:28:38.698Z,5.20
2018-02-02T09:31:06.160Z,5.10
2018-02-02T09:33:33.625Z,5.10
2018-02-02T09:36:01.494Z,5.00
2018-02-02T09:38:28.987Z,5.00
2018-02-02T09:40:57.218Z,4.90
2018-02-02T09:43:25.326Z,4.80
2018-02-02T09:45:53.568Z,4.80
2018-02-02T09:48:21.030Z,4.80
2018-02-02T09:50:48.498Z,4.80
2018-02-02T09:53:15.965Z,4.80
2018-02-02T09:55:44.194Z,4.50
2018-02-02T09:58:11.662Z,4.50
2018-02-02T10:00:39.110Z,4.40
2018-02-02T10:03:06.570Z,4.40
2018-02-02T10:05:34.026Z,4.30
2018-02-02T10:08:01.487Z,4.30
2018-02-02T10:10:30.602Z,4.30
2018-02-02T10:12:58.070Z,4.30
2018-02-02T10:15:26.297Z,4.20
2018-02-02T10:17:53.738Z,4.20
2018-02-02T10:20:22.131Z,4.30
2018-02-02T10:22:50.414Z,4.30
2018-02-02T10:25:17.865Z,4.30
2018-02-02T10:27:45.343Z,4.40
2018-02-02T10:30:13.629Z,4.50
2018-02-02T10:32:41.078Z,4.40
2018-02-02T10:35:09.187Z,4.50
2018-02-02T10:37:37.410Z,4.60
2018-02-02T10:40:05.899Z,4.60
2018-02-02T10:42:33.374Z,4.70
2018-02-02T10:45:00.839Z,4.70
2018-02-02T10:47:28.298Z,4.70
2018-02-02T10:49:56.526Z,4.60
2018-02-02T10:52:23.979Z,4.60
2018-02-02T10:54:51.430Z,4.70
2018-02-02T10:57:18.910Z,4.70
2018-02-02T10:59:46.371Z,4.70
2018-02-02T11:02:19.592Z,4.70
2018-02-02T11:04:47.046Z,4.70
2018-02-02T11:07:15.272Z,4.80
2018-02-02T11:09:42.722Z,4.80
2018-02-02T11:12:10.174Z,4.90
2018-02-02T11:14:37.623Z,5.00
2018-02-02T11:17:06.122Z,5.10
2018-02-02T11:19:33.578Z,5.10
2018-02-02T11:22:01.033Z,5.10
2018-02-02T11:24:28.522Z,5.10
2018-02-02T11:26:55.974Z,5.20
2018-02-02T11:29:23.447Z,5.30
2018-02-02T11:31:50.906Z,5.20
2018-02-02T11:34:18.358Z,5.20
2018-02-02T11:36:47.403Z,5.30
2018-02-02T11:39:14.862Z,5.30
2018-02-02T11:41:42.380Z,5.40
2018-02-02T11:44:10.649Z,5.50
2018-02-02T11:46:38.914Z,5.60
2018-02-02T11:49:06.497Z,5.60
2018-02-02T11:51:34.718Z,5.90
2018-02-02T11:54:02.952Z,6.10
2018-02-02T11:56:31.198Z,6.40
2018-02-02T11:58:58.658Z,6.40
2018-02-02T12:01:26.124Z,6.40
2018-02-02T12:03:53.566Z,6.50
2018-02-02T12:06:21.042Z,6.60
2018-02-02T12:08:49.284Z,6.90
2018-02-02T12:11:16.747Z,6.90
2018-02-02T12:13:44.211Z,6.90
2018-02-02T12:16:11.676Z,6.90
2018-02-02T12:18:39.130Z,6.90
2018-02-02T12:21:09.155Z,7.00
2018-02-02T12:23:51.515Z,7.00
2018-02-02T12:26:24.612Z,6.90
2018-02-02T12:28:57.750Z,6.80
2018-02-02T12:31:25.974Z,6.70
2018-02-02T12:34:13.118Z,6.60
2018-02-02T12:36:40.579Z,6.70
2018-02-02T12:39:08.052Z,6.80
2018-02-02T12:41:35.893Z,6.90
2018-02-02T12:44:03.338Z,6.90
2018-02-02T12:46:30.794Z,7.00
2018-02-02T12:48:59.158Z,7.30
2018-02-02T12:51:27.286Z,7.20
2018-02-02T12:53:55.514Z,6.70
2018-02-02T12:56:22.995Z,6.60
2018-02-02T12:58:50.463Z,6.40
2018-02-02T13:01:18.694Z,6.10
2018-02-02T13:03:46.926Z,6.00
2018-02-02T13:06:15.142Z,5.80
2018-02-02T13:08:42.598Z,5.80
2018-02-02T13:11:10.303Z,6.00
2018-02-02T13:13:37.770Z,6.40
2018-02-02T13:16:05.995Z,7.30
2018-02-02T13:18:33.481Z,7.20
2018-02-02T13:21:01.080Z,7.60
2018-02-02T13:23:28.522Z,8.00
2018-02-02T13:25:56.781Z,8.40
2018-02-02T13:28:25.011Z,8.30
2018-02-02T13:30:52.506Z,8.30
2018-02-02T13:33:20.795Z,8.10
2018-02-02T13:35:48.338Z,7.70
2018-02-02T13:38:15.951Z,7.70
2018-02-02T13:40:43.410Z,7.70
2018-02-02T13:43:10.875Z,8.00
2018-02-02T13:45:38.326Z,8.10
2018-02-02T13:48:05.807Z,8.10
2018-02-02T13:50:33.259Z,7.90
2018-02-02T13:53:00.718Z,8.00
2018-02-02T13:55:28.191Z,7.90
2018-02-02T13:57:55.646Z,8.00
2018-02-02T14:00:23.112Z,8.00
2018-02-02T14:02:50.570Z,7.90
2018-02-02T14:05:18.802Z,8.10
2018-02-02T14:07:47.144Z,7.90
2018-02-02T14:10:14.662Z,7.90
2018-02-02T14:12:42.118Z,7.60
2018-02-02T14:15:09.582Z,7.40
2018-02-02T14:17:37.154Z,7.20
2018-02-02T14:20:04.635Z,7.20
2018-02-02T14:22:32.854Z,7.20
2018-02-02T14:25:00.330Z,7.20
2018-02-02T14:27:27.784Z,7.30
2018-02-02T14:29:55.246Z,7.40
2018-02-02T14:32:22.718Z,7.60
2018-02-02T14:34:50.170Z,8.00
2018-02-02T14:37:17.719Z,7.90
2018-02-02T14:39:45.280Z,7.60
2018-02-02T14:42:12.734Z,7.40
2018-02-02T14:44:40.198Z,7.40
2018-02-02T14:47:07.682Z,7.20
2018-02-02T14:49:35.202Z,7.20
2018-02-02T14:52:02.766Z,7.20
2018-02-02T14:54:30.241Z,7.20
2018-02-02T14:56:58.458Z,7.20
2018-02-02T14:59:25.924Z,7.20
2018-02-02T15:01:53.390Z,7.10
2018-02-02T15:04:20.851Z,6.90
2018-02-02T15:06:48.314Z,6.70
2018-02-02T15:09:15.782Z,6.60
2018-02-02T15:11:43.226Z,6.60
2018-02-02T15:14:10.686Z,6.60
2018-02-02T15:16:38.955Z,6.50
2018-02-02T15:19:06.432Z,6.50
2018-02-02T15:21:33.889Z,6.60
2018-02-02T15:24:01.367Z,6.60
2018-02-02T15:26:29.618Z,6.50
2018-02-02T15:28:57.066Z,6.50
2018-02-02T15:31:24.597Z,6.40
2018-02-02T15:33:52.050Z,6.40
2018-02-02T15:36:19.497Z,6.30
2018-02-02T15:38:47.017Z,6.20
2018-02-02T15:41:15.250Z,6.00
2018-02-02T15:43:42.701Z,5.90
2018-02-02T15:46:10.186Z,5.90
2018-02-02T15:48:37.637Z,5.90
2018-02-02T15:51:05.110Z,5.90
2018-02-02T15:53:32.593Z,5.90
2018-02-02T15:56:00.767Z,5.90
2018-02-02T15:58:28.246Z,5.80
2018-02-02T16:00:55.726Z,5.80
2018-02-02T16:03:23.183Z,5.80
2018-02-02T16:05:50.689Z,5.70
2018-02-02T16:08:18.973Z,5.70
2018-02-02T16:10:47.186Z,5.60
2018-02-02T16:13:14.638Z,5.60
2018-02-02T16:15:42.120Z,5.60
2018-02-02T16:18:09.791Z,5.60
2018-02-02T16:20:37.249Z,5.50
2018-02-02T16:23:04.736Z,5.50
2018-02-02T16:25:32.946Z,5.40
2018-02-02T16:28:00.402Z,5.40
2018-02-02T16:30:27.874Z,5.40
2018-02-02T16:32:56.623Z,5.30
2018-02-02T16:35:24.081Z,5.30
2018-02-02T16:37:51.571Z,5.20
2018-02-02T16:40:19.573Z,5.30
2018-02-02T16:42:47.795Z,5.20
2018-02-02T16:45:15.274Z,5.20
2018-02-02T16:47:42.798Z,5.20
2018-02-02T16:50:11.036Z,5.20
2018-02-02T16:52:38.515Z,5.20
2018-02-02T16:55:06.739Z,5.20
2018-02-02T16:57:34.194Z,5.20
2018-02-02T17:00:01.674Z,5.20
2018-02-02T17:02:29.129Z,5.00
2018-02-02T17:04:56.602Z,5.00
2018-02-02T17:07:24.844Z,4.80
2018-02-02T17:09:52.318Z,4.80
2018-02-02T17:12:19.778Z,4.80
2018-02-02T17:14:48.007Z,4.60
2018-02-02T17:17:15.498Z,4.60
2018-02-02T17:19:42.965Z,4.50
2018-02-02T17:22:10.436Z,4.40
2018-02-02T17:24:38.659Z,4.30
2018-02-02T17:27:06.180Z,4.30
2018-02-02T17:29:34.438Z,4.20
2018-02-02T17:32:01.892Z,4.20
2018-02-02T17:34:29.359Z,4.20
2018-02-02T17:36:57.582Z,4.10
2018-02-02T17:39:25.266Z,4.00
2018-02-02T17:41:52.742Z,4.00
2018-02-02T17:44:20.195Z,3.90
2018-02-02T17:46:47.645Z,3.90
2018-02-02T17:49:15.134Z,3.80
2018-02-02T17:51:42.587Z,3.80
2018-02-02T17:54:11.563Z,3.70
2018-02-02T17:56:39.797Z,3.70
2018-02-02T17:59:08.057Z,3.70
2018-02-02T18:01:35.954Z,3.60
2018-02-02T18:04:03.414Z,3.70
2018-02-02T18:06:30.890Z,3.70
2018-02-02T18:08:58.355Z,3.70
2018-02-02T18:11:26.575Z,3.70
2018-02-02T18:13:54.072Z,3.70
2018-02-02T18:16:21.551Z,3.80
2018-02-02T18:18:49.774Z,3.80
2018-02-02T18:21:17.282Z,3.80
2018-02-02T18:23:45.507Z,3.90
2018-02-02T18:26:12.995Z,3.80
2018-02-02T18:28:40.473Z,3.90
2018-02-02T18:31:08.728Z,4.00
2018-02-02T18:33:36.181Z,3.90
2018-02-02T18:36:03.654Z,4.00
2018-02-02T18:38:31.886Z,4.00
2018-02-02T18:40:59.354Z,4.00
2018-02-02T18:43:27.741Z,4.00
2018-02-02T18:45:55.210Z,4.00
2018-02-02T18:48:22.676Z,4.10
2018-02-02T18:50:50.919Z,4.10
2018-02-02T18:53:18.374Z,4.10
2018-02-02T18:55:47.382Z,4.20
2018-02-02T18:58:14.858Z,4.10
2018-02-02T19:00:43.095Z,4.10
2018-02-02T19:03:10.564Z,4.10
2018-02-02T19:05:38.821Z,4.10
2018-02-02T19:08:07.039Z,4.10
2018-02-02T19:10:35.274Z,4.10
2018-02-02T19:13:02.734Z,4.00
2018-02-02T19:15:30.197Z,4.10
2018-02-02T19:17:57.675Z,4.00
2018-02-02T19:20:25.234Z,4.00
2018-02-02T19:22:52.738Z,4.00
2018-02-02T19:25:20.965Z,4.00
2018-02-02T19:27:48.463Z,4.00
2018-02-02T19:30:15.920Z,4.00
2018-02-02T19:32:43.393Z,4.00
2018-02-02T19:35:10.927Z,4.00
2018-02-02T19:37:38.378Z,4.00
2018-02-02T19:40:05.902Z,4.00
2018-02-02T19:42:33.362Z,3.90
2018-02-02T19:45:00.860Z,3.90
2018-02-02T19:47:28.382Z,3.80
2018-02-02T19:49:55.846Z,3.80
2018-02-02T19:52:24.083Z,3.70
2018-02-02T19:54:51.586Z,3.70
2018-02-02T19:57:23.454Z,3.70
2018-02-02T19:59:50.926Z,3.60
2018-02-02T20:02:18.470Z,3.60
2018-02-02T20:04:45.944Z,3.60
2018-02-02T20:07:13.405Z,3.60
2018-02-02T20:09:40.932Z,3.60
2018-02-02T20:12:09.180Z,3.60
2018-02-02T20:14:36.629Z,3.60
2018-02-02T20:17:04.115Z,3.60
2018-02-02T20:19:32.370Z,3.70
2018-02-02T20:22:00.589Z,3.70
2018-02-02T20:24:28.082Z,3.70
2018-02-02T20:26:55.607Z,3.70
2018-02-02T20:29:23.110Z,3.70
2018-02-02T20:31:50.606Z,3.70
2018-02-02T20:34:18.878Z,3.70
2018-02-02T20:36:46.417Z,3.70
2018-02-02T20:39:14.712Z,3.70
2018-02-02T20:41:42.207Z,3.60
2018-02-02T20:44:09.720Z,3.70
2018-02-02T20:46:38.056Z,3.50
2018-02-02T20:49:05.608Z,3.50
2018-02-02T20:51:33.813Z,3.40
2018-02-02T20:54:01.308Z,3.30
2018-02-02T20:56:30.233Z,3.30
2018-02-02T20:58:58.454Z,3.20
2018-02-02T21:01:26.802Z,3.20
2018-02-02T21:03:54.325Z,3.10
2018-02-02T21:06:21.857Z,3.10
2018-02-02T21:08:50.172Z,2.90
2018-02-02T21:11:17.626Z,2.90
2018-02-02T21:13:45.102Z,2.80
2018-02-02T21:16:12.590Z,2.70
2018-02-02T21:18:40.812Z,2.60
2018-02-02T21:21:08.277Z,2.60
2018-02-02T21:23:35.733Z,2.50
2018-02-02T21:26:03.192Z,2.50
2018-02-02T21:28:30.647Z,2.40
2018-02-02T21:30:58.122Z,2.30
2018-02-02T21:33:25.582Z,2.30
2018-02-02T21:35:53.033Z,2.30
2018-02-02T21:38:20.530Z,2.20
2018-02-02T21:40:48.789Z,2.10
2018-02-02T21:43:16.343Z,2.10
2018-02-02T21:45:44.686Z,2.00
2018-02-02T21:48:12.161Z,2.00
2018-02-02T21:50:39.642Z,2.00
2018-02-02T21:53:08.611Z,1.90
2018-02-02T21:55:36.083Z,1.90
2018-02-02T21:58:05.066Z,1.80
2018-02-02T22:00:32.642Z,1.80
2018-02-02T22:03:00.866Z,1.80
2018-02-02T22:05:28.350Z,1.80
2018-02-02T22:07:55.836Z,1.80
2018-02-02T22:10:24.093Z,1.70
2018-02-02T22:12:51.618Z,1.70
2018-02-02T22:15:19.206Z,1.70
2018-02-02T22:17:46.758Z,1.60
2018-02-02T22:20:15.042Z,1.60
2018-02-02T22:22:42.587Z,1.50
2018-02-02T22:25:10.971Z,1.50
2018-02-02T22:27:38.523Z,1.50
2018-02-02T22:30:06.019Z,1.40
2018-02-02T22:32:34.246Z,1.40
2018-02-02T22:35:01.734Z,1.40
2018-02-02T22:37:29.240Z,1.40
2018-02-02T22:39:57.455Z,1.40
2018-02-02T22:42:25.418Z,1.40
2018-02-02T22:44:52.921Z,1.40
2018-02-02T22:47:20.390Z,1.30
2018-02-02T22:49:47.882Z,1.30
2018-02-02T22:52:15.369Z,1.20
2018-02-02T22:54:42.839Z,1.20
2018-02-02T22:57:11.122Z,1.10
2018-02-02T22:59:39.388Z,1.10
2018-02-02T23:02:06.998Z,1.10
2018-02-02T23:04:34.494Z,1.10
2018-02-02T23:07:02.015Z,1.10
2018-02-02T23:09:29.511Z,1.10
2018-02-02T23:11:57.051Z,1.10
2018-02-02T23:14:24.570Z,1.10
2018-02-02T23:16:52.063Z,1.00
2018-02-02T23:19:19.545Z,1.00
2018-02-02T23:21:47.885Z,1.00
2018-02-02T23:24:15.379Z,0.90
2018-02-02T23:26:42.854Z,1.00
2018-02-02T23:29:10.336Z,0.90
2018-02-02T23:31:37.833Z,0.90
2018-02-02T23:34:05.331Z,0.90
2018-02-02T23:36:33.616Z,0.90
2018-02-02T23:39:01.207Z,0.90
2018-02-02T23:41:30.330Z,0.90
2018-02-02T23:43:57.823Z,0.80
2018-02-02T23:46:26.482Z,0.80
2018-02-02T23:48:53.950Z,0.80
2018-02-02T23:51:21.448Z,0.80
2018-02-02T23:53:48.962Z,0.80
2018-02-02T23:56:16.456Z,0.70
2018-02-02T23:58:43.991Z,0.70
